Terminal Aerodrome Forecast
Issued by NWS Oklahoma City, OK

Home | Current Version | Previous Version | Text Only | Print | Product List | Glossary On
Versions: 1 2 3 4 5 6 7 8 9 10 11 12 13 14 15 16 17 18 19 20 21 22 23 24 25
226
FTUS44 KOUN 282320
TAFOUN
TAF
KOUN 282320Z 2900/2924 11010KT P6SM BKN050
     FM290300 08013KT P6SM OVC040
     FM290700 12013KT 5SM TSRA OVC025CB
     FM290900 06012KT 5SM TSRA OVC025CB
     FM291200 04015G25KT P6SM RA VCTS OVC015CB
     FM291600 34017KT 2SM BR OVC009
      TEMPO 2916/2920 -RA=

USA.gov is the U.S. government's official web portal to all federal, state and local government web resources and services.